createdAt,value
2018-12-23T00:09:41.053Z,18.20
2018-12-23T00:12:09.510Z,18.43
2018-12-23T00:31:40.285Z,16.63
2018-12-23T00:50:58.161Z,18.53
2018-12-23T00:57:37.259Z,18.53
2018-12-23T01:00:06.668Z,18.10
2018-12-23T01:02:35.188Z,16.63
2018-12-23T01:05:04.269Z,17.23
2018-12-23T01:07:32.691Z,15.33
2018-12-23T01:10:01.187Z,16.00
2018-12-23T01:12:29.740Z,16.33
2018-12-23T01:14:58.232Z,15.60
2018-12-23T01:17:26.792Z,16.63
2018-12-23T01:19:55.270Z,15.97
2018-12-23T01:22:23.793Z,16.00
2018-12-23T01:24:52.602Z,14.93
2018-12-23T01:27:21.058Z,14.03
2018-12-23T01:29:49.772Z,14.97
2018-12-23T01:32:18.292Z,15.97
2018-12-23T01:34:47.057Z,16.13
2018-12-23T01:37:15.521Z,15.43
2018-12-23T01:39:43.998Z,16.67
2018-12-23T01:42:12.477Z,16.17
2018-12-23T01:44:41.239Z,18.20
2018-12-23T01:47:09.673Z,18.87
2018-12-23T01:49:38.161Z,17.30
2018-12-23T01:52:06.606Z,17.70
2018-12-23T01:54:35.357Z,18.80
2018-12-23T01:57:03.829Z,21.43
2018-12-23T01:59:32.633Z,21.43
2018-12-23T02:02:01.084Z,20.60
2018-12-23T02:04:29.577Z,23.17
2018-12-23T02:06:58.016Z,22.67
2018-12-23T02:09:26.523Z,21.77
2018-12-23T02:11:54.961Z,22.77
2018-12-23T02:14:23.729Z,23.13
2018-12-23T02:16:52.174Z,23.73
2018-12-23T02:19:20.812Z,25.67
2018-12-23T02:21:49.259Z,25.20
2018-12-23T02:24:17.869Z,24.53
2018-12-23T02:26:46.330Z,24.73
2018-12-23T02:29:15.163Z,24.83
2018-12-23T02:31:43.608Z,23.43
2018-12-23T02:34:12.079Z,25.93
2018-12-23T02:36:40.536Z,24.83
2018-12-23T02:39:09.396Z,26.23
2018-12-23T02:41:37.826Z,28.07
2018-12-23T02:44:06.432Z,27.00
2018-12-23T02:46:34.877Z,28.00
2018-12-23T02:49:03.375Z,27.27
2018-12-23T02:51:31.999Z,26.20
2018-12-23T02:54:00.728Z,25.53
2018-12-23T02:56:29.190Z,27.70
2018-12-23T02:58:57.649Z,28.20
2018-12-23T03:01:26.171Z,26.70
2018-12-23T03:03:54.649Z,26.87
2018-12-23T03:06:23.190Z,27.43
2018-12-23T03:08:51.651Z,27.97
2018-12-23T03:11:20.106Z,28.80
2018-12-23T03:13:48.674Z,29.77
2018-12-23T03:16:17.171Z,28.30
2018-12-23T03:18:45.984Z,29.23
2018-12-23T03:21:14.507Z,30.03
2018-12-23T03:23:42.990Z,29.03
2018-12-23T03:26:11.447Z,28.60
2018-12-23T03:28:39.898Z,28.43
2018-12-23T03:31:08.345Z,27.87
2018-12-23T03:33:37.100Z,28.80
2018-12-23T03:36:14.755Z,28.67
2018-12-23T03:38:36.312Z,29.30
2018-12-23T03:41:04.796Z,27.43
2018-12-23T03:43:33.341Z,28.77
2018-12-23T03:46:01.834Z,24.47
2018-12-23T03:48:30.566Z,27.23
2018-12-23T03:50:59.001Z,25.27
2018-12-23T03:53:27.563Z,27.70
2018-12-23T03:55:55.986Z,29.53
2018-12-23T03:58:24.540Z,29.20
2018-12-23T04:00:53.008Z,29.57
2018-12-23T04:03:21.476Z,28.63
2018-12-23T04:05:50.025Z,30.33
2018-12-23T04:08:18.699Z,32.23
2018-12-23T04:10:47.126Z,31.77
2018-12-23T04:13:15.600Z,32.47
2018-12-23T04:15:44.057Z,34.90
2018-12-23T04:18:12.687Z,32.27
2018-12-23T04:20:41.148Z,34.33
2018-12-23T04:23:09.899Z,32.37
2018-12-23T04:25:38.347Z,34.23
2018-12-23T04:28:06.826Z,28.70
2018-12-23T04:30:35.349Z,24.90
2018-12-23T04:33:04.142Z,24.80
2018-12-23T04:35:32.586Z,25.17
2018-12-23T04:38:01.337Z,27.40
2018-12-23T04:40:29.766Z,26.70
2018-12-23T04:42:58.511Z,25.80
2018-12-23T04:45:26.975Z,26.70
2018-12-23T04:47:55.434Z,27.80
2018-12-23T04:50:23.877Z,27.47
2018-12-23T04:52:52.327Z,29.23
2018-12-23T04:55:20.773Z,29.40
2018-12-23T04:57:49.227Z,30.07
2018-12-23T05:00:17.725Z,29.83
2018-12-23T05:02:46.201Z,29.40
2018-12-23T05:05:14.744Z,31.47
2018-12-23T05:07:43.463Z,30.07
2018-12-23T05:10:11.908Z,26.97
2018-12-23T05:12:40.384Z,28.00
2018-12-23T05:15:08.823Z,25.77
2018-12-23T05:17:37.276Z,27.13
2018-12-23T05:20:05.738Z,26.53
2018-12-23T05:22:34.366Z,26.80
2018-12-23T05:25:02.835Z,27.70
2018-12-23T05:27:31.303Z,28.60
2018-12-23T05:29:59.779Z,30.00
2018-12-23T05:32:28.353Z,27.40
2018-12-23T05:34:56.794Z,28.93
2018-12-23T05:37:25.282Z,28.93
2018-12-23T05:39:53.734Z,23.43
2018-12-23T05:42:22.370Z,21.33
2018-12-23T05:44:50.819Z,20.50
2018-12-23T05:47:19.628Z,20.67
2018-12-23T05:49:48.216Z,20.80
2018-12-23T05:52:16.699Z,22.57
2018-12-23T05:54:45.138Z,20.83
2018-12-23T05:57:13.872Z,24.70
2018-12-23T05:59:42.326Z,25.40
2018-12-23T06:02:10.770Z,25.13
2018-12-23T06:04:39.200Z,28.77
2018-12-23T06:07:07.636Z,29.63
2018-12-23T06:09:36.103Z,25.77
2018-12-23T06:12:04.562Z,20.43
2018-12-23T06:14:33.028Z,20.27
2018-12-23T06:17:01.485Z,19.93
2018-12-23T06:19:30.466Z,21.07
2018-12-23T06:21:58.940Z,20.87
2018-12-23T06:24:27.415Z,20.53
2018-12-23T06:26:56.552Z,22.23
2018-12-23T06:29:25.287Z,23.20
2018-12-23T06:31:53.730Z,26.03
2018-12-23T06:34:22.593Z,26.33
2018-12-23T06:36:51.067Z,30.37
2018-12-23T06:39:19.524Z,32.53
2018-12-23T06:41:48.072Z,33.27
2018-12-23T06:44:16.557Z,34.80
2018-12-23T06:46:45.003Z,36.23
2018-12-23T06:49:13.522Z,35.73
2018-12-23T06:51:42.338Z,35.30
2018-12-23T06:54:11.083Z,35.77
2018-12-23T06:56:39.620Z,36.53
2018-12-23T06:59:08.074Z,31.17
2018-12-23T07:01:36.519Z,30.73
2018-12-23T07:04:05.086Z,31.20
2018-12-23T07:06:33.543Z,31.67
2018-12-23T07:09:02.309Z,30.60
2018-12-23T07:11:30.746Z,30.13
2018-12-23T07:13:59.486Z,28.10
2018-12-23T07:16:27.948Z,27.70
2018-12-23T07:18:56.675Z,28.53
2018-12-23T07:21:25.127Z,27.60
2018-12-23T07:23:53.607Z,24.10
2018-12-23T07:26:22.136Z,26.13
2018-12-23T07:28:50.913Z,23.10
2018-12-23T07:31:19.392Z,24.73
2018-12-23T07:33:47.910Z,25.97
2018-12-23T07:36:16.533Z,25.67
2018-12-23T07:38:45.032Z,24.93
2018-12-23T07:41:13.476Z,25.27
2018-12-23T07:43:42.212Z,25.97
2018-12-23T07:46:10.658Z,24.83
2018-12-23T07:48:39.493Z,25.63
2018-12-23T07:51:07.968Z,28.60
2018-12-23T07:53:36.765Z,26.17
2018-12-23T07:56:05.352Z,26.73
2018-12-23T07:58:33.946Z,25.43
2018-12-23T08:01:02.523Z,24.60
2018-12-23T08:03:31.374Z,22.57
2018-12-23T08:05:59.900Z,24.10
2018-12-23T08:08:28.414Z,24.30
2018-12-23T08:10:56.968Z,24.67
2018-12-23T08:13:25.628Z,24.53
2018-12-23T08:15:54.137Z,24.87
2018-12-23T08:18:22.577Z,25.20
2018-12-23T08:20:51.024Z,25.10
2018-12-23T08:23:19.924Z,23.97
2018-12-23T08:25:48.389Z,21.67
2018-12-23T08:28:16.854Z,20.87
2018-12-23T08:30:45.279Z,23.73
2018-12-23T08:33:13.730Z,21.63
2018-12-23T08:35:42.209Z,26.13
2018-12-23T08:38:10.649Z,27.63
2018-12-23T08:40:39.518Z,24.53
2018-12-23T08:43:07.932Z,23.97
2018-12-23T08:45:36.433Z,23.50
2018-12-23T08:48:04.968Z,18.97
2018-12-23T08:50:33.641Z,20.73
2018-12-23T08:53:02.085Z,26.33
2018-12-23T08:55:30.846Z,21.73
2018-12-23T08:57:59.296Z,23.37
2018-12-23T09:00:27.746Z,24.27
2018-12-23T09:02:56.474Z,27.63
2018-12-23T09:05:25.113Z,29.83
2018-12-23T09:07:53.585Z,29.23
2018-12-23T09:10:22.024Z,47.47
2018-12-23T09:12:50.486Z,34.37
2018-12-23T09:15:18.939Z,30.17
2018-12-23T09:17:47.431Z,33.63
2018-12-23T09:20:15.926Z,29.23
2018-12-23T09:22:44.693Z,31.77
2018-12-23T09:25:13.162Z,28.97
2018-12-23T09:27:41.990Z,29.77
2018-12-23T09:30:10.423Z,31.20
2018-12-23T09:32:38.962Z,28.70
2018-12-23T09:35:07.514Z,26.43
2018-12-23T09:37:36.203Z,25.63
2018-12-23T09:40:04.829Z,26.93
2018-12-23T09:42:33.360Z,31.13
2018-12-23T09:45:01.809Z,33.17
2018-12-23T09:47:30.281Z,30.50
2018-12-23T09:49:58.819Z,33.43
2018-12-23T09:52:27.291Z,32.30
2018-12-23T09:54:55.897Z,34.50
2018-12-23T09:57:24.745Z,34.47
2018-12-23T09:59:53.485Z,42.13
2018-12-23T10:02:22.046Z,33.07
2018-12-23T10:04:51.089Z,35.87
2018-12-23T10:07:19.844Z,34.93
2018-12-23T10:09:48.332Z,32.90
2018-12-23T10:12:17.097Z,36.60
2018-12-23T10:14:45.592Z,37.90
2018-12-23T10:17:14.477Z,38.73
2018-12-23T10:19:43.024Z,38.17
2018-12-23T10:22:11.588Z,37.10
2018-12-23T10:24:40.043Z,44.00
2018-12-23T10:27:08.611Z,40.37
2018-12-23T10:29:37.088Z,40.33
2018-12-23T10:32:05.791Z,34.53
2018-12-23T10:34:34.349Z,34.57
2018-12-23T10:37:02.830Z,30.50
2018-12-23T10:39:31.298Z,33.10
2018-12-23T10:41:59.751Z,29.70
2018-12-23T10:44:28.226Z,31.33
2018-12-23T10:46:57.021Z,30.93
2018-12-23T10:49:25.700Z,30.47
2018-12-23T10:51:54.315Z,30.00
2018-12-23T10:54:23.165Z,29.67
2018-12-23T10:56:51.821Z,28.27
2018-12-23T10:59:20.443Z,29.33
2018-12-23T11:01:48.911Z,31.30
2018-12-23T11:04:17.734Z,29.40
2018-12-23T11:06:46.333Z,31.10
2018-12-23T11:09:14.924Z,25.57
2018-12-23T11:11:43.524Z,25.77
2018-12-23T11:14:12.028Z,24.90
2018-12-23T11:16:40.703Z,26.10
2018-12-23T11:19:09.566Z,25.77
2018-12-23T11:21:38.150Z,24.13
2018-12-23T11:24:06.776Z,23.03
2018-12-23T11:26:35.294Z,24.87
2018-12-23T11:29:03.935Z,25.07
2018-12-23T11:31:32.520Z,23.37
2018-12-23T11:34:01.296Z,23.80
2018-12-23T11:36:29.901Z,22.60
2018-12-23T11:38:58.421Z,23.80
2018-12-23T11:41:26.956Z,23.23
2018-12-23T11:43:55.761Z,25.50
2018-12-23T11:46:24.933Z,27.53
2018-12-23T11:48:53.580Z,28.67
2018-12-23T11:51:22.331Z,28.80
2018-12-23T11:53:51.098Z,29.30
2018-12-23T11:56:19.522Z,30.73
2018-12-23T11:58:48.273Z,27.87
2018-12-23T12:01:16.855Z,38.57
2018-12-23T12:03:45.323Z,43.57
2018-12-23T12:06:13.876Z,37.70
2018-12-23T12:08:43.817Z,25.13
2018-12-23T12:11:12.605Z,39.37
2018-12-23T12:13:41.163Z,35.83
2018-12-23T12:16:09.656Z,28.60
2018-12-23T12:18:39.667Z,32.73
2018-12-23T12:21:08.925Z,34.77
2018-12-23T12:23:37.679Z,32.90
2018-12-23T12:26:06.131Z,34.50
2018-12-23T12:28:35.030Z,34.63
2018-12-23T12:31:03.503Z,31.30
2018-12-23T12:33:32.327Z,28.67
2018-12-23T12:36:00.777Z,28.47
2018-12-23T12:38:29.556Z,25.80
2018-12-23T12:40:58.019Z,19.53
2018-12-23T12:43:26.726Z,21.57
2018-12-23T12:46:00.529Z,22.90
2018-12-23T12:48:25.810Z,26.23
2018-12-23T12:50:54.427Z,25.80
2018-12-23T12:53:22.990Z,25.70
2018-12-23T12:55:51.614Z,29.57
2018-12-23T12:58:20.081Z,31.80
2018-12-23T13:00:48.712Z,31.00
2018-12-23T13:03:17.499Z,37.63
2018-12-23T13:05:46.017Z,34.37
2018-12-23T13:08:14.481Z,36.70
2018-12-23T13:10:42.938Z,37.90
2018-12-23T13:13:11.746Z,38.77
2018-12-23T13:15:40.406Z,38.17
2018-12-23T13:18:09.252Z,37.37
2018-12-23T13:20:37.676Z,34.63
2018-12-23T13:23:06.162Z,36.03
2018-12-23T13:25:34.591Z,34.97
2018-12-23T13:28:03.242Z,36.23
2018-12-23T13:30:31.732Z,36.17
2018-12-23T13:33:00.632Z,33.17
2018-12-23T13:35:29.108Z,31.73
2018-12-23T13:37:57.647Z,33.73
2018-12-23T13:40:40.774Z,32.97
2018-12-23T13:43:18.224Z,32.20
2018-12-23T13:46:07.284Z,31.80
2018-12-23T13:48:58.356Z,34.80
2018-12-23T13:52:09.090Z,36.07
2018-12-23T13:54:56.895Z,37.80
2018-12-23T13:59:06.018Z,32.30
2018-12-23T14:02:24.114Z,29.43
2018-12-23T14:05:59.402Z,30.40
2018-12-23T14:09:17.092Z,28.07
2018-12-23T14:11:52.827Z,25.73
2018-12-23T14:14:21.696Z,26.63
2018-12-23T14:16:50.264Z,25.87
2018-12-23T14:19:18.770Z,24.57
2018-12-23T14:21:47.290Z,26.40
2018-12-23T14:24:15.847Z,24.83
2018-12-23T14:26:44.311Z,25.30
2018-12-23T14:29:13.040Z,26.10
2018-12-23T14:31:41.598Z,28.70
2018-12-23T14:34:10.051Z,27.27
2018-12-23T14:36:38.544Z,29.00
2018-12-23T14:39:08.391Z,30.77
2018-12-23T14:41:36.838Z,31.20
2018-12-23T14:44:05.566Z,30.53
2018-12-23T14:46:34.085Z,30.23
2018-12-23T14:49:02.867Z,32.50
2018-12-23T14:51:31.384Z,33.27
2018-12-23T14:53:59.995Z,30.20
2018-12-23T14:56:28.724Z,31.80
2018-12-23T14:58:57.332Z,29.33
2018-12-23T15:01:25.852Z,31.90
2018-12-23T15:03:54.439Z,31.33
2018-12-23T15:06:23.171Z,30.80
2018-12-23T15:08:51.781Z,32.13
2018-12-23T15:11:20.308Z,29.27
2018-12-23T15:13:49.182Z,32.67
2018-12-23T15:16:17.765Z,33.13
2018-12-23T15:18:47.316Z,31.30
2018-12-23T15:21:15.943Z,31.27
2018-12-23T15:23:44.624Z,29.57
2018-12-23T15:26:13.182Z,28.57
2018-12-23T15:28:41.895Z,29.07
2018-12-23T15:31:10.454Z,28.63
2018-12-23T15:33:39.416Z,26.30
2018-12-23T15:36:07.935Z,25.47
2018-12-23T15:38:36.844Z,25.03
2018-12-23T15:41:05.323Z,26.27
2018-12-23T15:43:33.972Z,25.37
2018-12-23T15:46:02.483Z,26.00
2018-12-23T15:48:31.022Z,25.87
2018-12-23T15:50:59.478Z,26.90
2018-12-23T15:53:28.185Z,24.77
2018-12-23T15:55:56.638Z,24.23
2018-12-23T15:58:25.345Z,25.90
2018-12-23T16:00:54.018Z,24.93
2018-12-23T16:03:22.566Z,25.20
2018-12-23T16:05:51.092Z,25.40
2018-12-23T16:08:19.742Z,24.30
2018-12-23T16:10:48.261Z,24.27
2018-12-23T16:13:17.059Z,24.13
2018-12-23T16:15:45.532Z,22.53
2018-12-23T16:18:14.043Z,22.80
2018-12-23T16:20:42.507Z,23.53
2018-12-23T16:23:11.325Z,22.77
2018-12-23T16:25:39.770Z,87.30
2018-12-23T16:28:08.674Z,22.37
2018-12-23T16:30:37.434Z,22.87
2018-12-23T16:33:06.191Z,23.93
2018-12-23T16:35:34.742Z,21.50
2018-12-23T16:38:03.466Z,22.80
2018-12-23T16:40:31.872Z,24.57
2018-12-23T16:43:00.734Z,25.47
2018-12-23T16:45:29.193Z,26.60
2018-12-23T16:47:57.794Z,30.87
2018-12-23T16:50:26.489Z,30.10
2018-12-23T16:52:55.424Z,37.03
2018-12-23T16:55:24.149Z,38.43
2018-12-23T16:57:52.978Z,36.53
2018-12-23T17:00:21.414Z,40.00
2018-12-23T17:02:49.939Z,40.43
2018-12-23T17:05:18.414Z,37.43
2018-12-23T17:07:47.412Z,34.07
2018-12-23T17:10:15.865Z,34.20
2018-12-23T17:12:44.646Z,32.70
2018-12-23T17:15:13.063Z,29.77
2018-12-23T17:17:41.728Z,29.63
2018-12-23T17:20:12.901Z,28.63
2018-12-23T17:22:41.823Z,32.03
2018-12-23T17:25:10.472Z,29.07
2018-12-23T17:27:39.307Z,30.67
2018-12-23T17:30:08.552Z,31.70
2018-12-23T17:32:37.072Z,32.30
2018-12-23T17:35:05.717Z,31.83
2018-12-23T17:37:41.362Z,32.27
2018-12-23T17:40:16.429Z,32.63
2018-12-23T17:42:40.562Z,33.87
2018-12-23T17:45:09.280Z,34.00
2018-12-23T17:47:37.863Z,36.83
2018-12-23T17:50:07.569Z,35.63
2018-12-23T17:52:36.537Z,34.27
2018-12-23T17:55:05.254Z,33.37
2018-12-23T17:57:33.830Z,30.30
2018-12-23T18:00:02.498Z,28.27
2018-12-23T18:02:31.357Z,29.43
2018-12-23T18:04:59.951Z,28.30
2018-12-23T18:07:28.771Z,26.87
2018-12-23T18:09:57.539Z,33.67
2018-12-23T18:12:26.035Z,33.10
2018-12-23T18:14:54.665Z,36.00
2018-12-23T18:17:23.798Z,39.83
2018-12-23T18:19:52.482Z,40.83
2018-12-23T18:22:21.235Z,35.30
2018-12-23T18:24:49.930Z,36.70
2018-12-23T18:27:18.511Z,32.27
2018-12-23T18:29:47.146Z,30.83
2018-12-23T18:32:15.983Z,31.10
2018-12-23T18:34:44.635Z,30.20
2018-12-23T18:37:13.379Z,32.03
2018-12-23T18:39:41.858Z,32.17
2018-12-23T18:42:10.813Z,32.13
2018-12-23T18:44:39.474Z,33.53
2018-12-23T18:47:08.243Z,32.33
2018-12-23T18:49:37.101Z,31.60
2018-12-23T18:52:05.775Z,29.00
2018-12-23T18:54:34.373Z,28.23
2018-12-23T18:57:06.862Z,29.83
2018-12-23T18:59:39.969Z,27.03
2018-12-23T19:02:11.671Z,27.87
2018-12-23T19:04:40.277Z,26.13
2018-12-23T19:07:09.192Z,27.27
2018-12-23T19:09:48.294Z,27.60
2018-12-23T19:13:32.930Z,27.10
2018-12-23T19:16:26.944Z,28.93
2018-12-23T19:41:13.023Z,25.07
2018-12-23T19:43:51.615Z,25.73
2018-12-23T19:48:34.830Z,23.37
2018-12-23T19:52:22.091Z,24.03
2018-12-23T19:57:15.078Z,25.03
2018-12-23T20:00:24.903Z,24.90
2018-12-23T20:03:02.269Z,24.50
2018-12-23T20:05:56.974Z,26.17
2018-12-23T20:09:12.759Z,27.73
2018-12-23T20:11:52.791Z,25.87
2018-12-23T20:14:38.314Z,26.40
2018-12-23T20:18:19.479Z,28.93
2018-12-23T20:20:59.630Z,27.37
2018-12-23T20:25:46.652Z,26.20
2018-12-23T20:29:28.190Z,26.37
2018-12-23T20:33:17.370Z,22.83
2018-12-23T20:37:00.453Z,26.63
2018-12-23T20:41:43.195Z,24.67
2018-12-23T20:44:58.834Z,24.23
2018-12-23T20:49:44.317Z,24.63
2018-12-23T20:52:39.676Z,20.80
2018-12-23T20:55:23.555Z,21.27
2018-12-23T20:59:09.708Z,20.37
2018-12-23T21:01:59.406Z,19.40
2018-12-23T21:04:42.178Z,20.73
2018-12-23T21:07:40.548Z,21.87
2018-12-23T21:11:32.118Z,23.53
2018-12-23T21:14:24.646Z,25.37
2018-12-23T21:17:34.312Z,24.40
2018-12-23T21:20:15.977Z,24.60
2018-12-23T21:22:54.467Z,25.80
2018-12-23T21:27:45.008Z,24.70
2018-12-23T21:30:30.161Z,25.47
2018-12-23T21:35:26.447Z,23.07
2018-12-23T21:38:12.165Z,24.67
2018-12-23T21:40:47.926Z,23.60
2018-12-23T21:44:02.670Z,22.00
2018-12-23T21:48:47.872Z,24.23
2018-12-23T21:51:27.124Z,21.70
2018-12-23T21:54:22.735Z,21.97
2018-12-23T21:57:02.748Z,21.33
2018-12-23T21:59:54.146Z,21.63
2018-12-23T22:02:34.627Z,22.10
2018-12-23T22:05:12.243Z,22.10
2018-12-23T22:07:57.930Z,20.73
2018-12-23T22:10:36.788Z,21.60
2018-12-23T22:13:36.473Z,23.40
2018-12-23T22:16:05.079Z,22.70
2018-12-23T22:18:33.587Z,22.33
2018-12-23T22:21:02.221Z,25.27
2018-12-23T22:23:31.049Z,26.03
2018-12-23T22:26:02.634Z,23.00
2018-12-23T22:28:31.137Z,24.10
2018-12-23T22:30:59.761Z,23.53
2018-12-23T22:33:28.434Z,23.67
2018-12-23T22:35:57.061Z,23.20
2018-12-23T22:38:25.774Z,23.13
2018-12-23T22:40:58.571Z,21.90
2018-12-23T22:43:27.080Z,24.40
2018-12-23T22:45:55.517Z,26.13
2018-12-23T22:48:24.227Z,23.37
2018-12-23T22:50:52.801Z,23.50
2018-12-23T22:53:21.571Z,24.10
2018-12-23T22:55:50.132Z,24.20
2018-12-23T22:58:19.154Z,24.13
2018-12-23T23:00:47.637Z,24.60
2018-12-23T23:03:16.371Z,25.20
2018-12-23T23:05:44.933Z,24.77
2018-12-23T23:08:13.794Z,24.70
2018-12-23T23:10:42.415Z,25.67
2018-12-23T23:13:18.582Z,26.07
2018-12-23T23:15:41.737Z,28.37
2018-12-23T23:18:10.410Z,28.80
2018-12-23T23:20:38.994Z,28.07
2018-12-23T23:23:07.506Z,26.63
2018-12-23T23:25:36.035Z,27.37
2018-12-23T23:28:04.819Z,26.17
2018-12-23T23:30:33.301Z,26.57
2018-12-23T23:33:02.117Z,27.20
2018-12-23T23:35:30.563Z,24.93
2018-12-23T23:37:59.059Z,23.80
2018-12-23T23:40:27.493Z,25.70
2018-12-23T23:42:56.220Z,23.40
2018-12-23T23:45:24.661Z,24.93
2018-12-23T23:47:53.120Z,25.70
2018-12-23T23:50:21.584Z,24.20
2018-12-23T23:52:50.274Z,23.83
2018-12-23T23:55:18.782Z,22.83
2018-12-23T23:57:47.275Z,23.40
